createdAt,value
2017-12-26T00:00:05.675Z,99802.52
2017-12-26T00:02:38.253Z,99793.69
2017-12-26T00:05:10.739Z,99791.36
2017-12-26T00:07:43.232Z,99786.75
2017-12-26T00:10:15.732Z,99785.44
2017-12-26T00:12:48.233Z,99775.91
2017-12-26T00:15:21.695Z,99765.16
2017-12-26T00:17:54.183Z,99761.28
2017-12-26T00:20:26.699Z,99753.49
2017-12-26T00:22:59.227Z,99738.45
2017-12-26T00:25:32.425Z,99739.41
2017-12-26T00:28:04.924Z,99740.03
2017-12-26T00:30:37.413Z,99736.76
2017-12-26T00:33:09.917Z,99740.38
2017-12-26T00:35:42.392Z,99723.20
2017-12-26T00:38:14.903Z,99729.42
2017-12-26T00:40:47.387Z,99721.80
2017-12-26T00:43:19.900Z,99723.67
2017-12-26T00:45:52.800Z,99709.38
2017-12-26T00:48:25.315Z,99710.52
2017-12-26T00:50:58.727Z,99695.59
2017-12-26T00:53:31.224Z,99698.59
2017-12-26T00:56:04.783Z,99691.71
2017-12-26T00:58:37.270Z,99692.91
2017-12-26T01:01:09.774Z,99680.31
2017-12-26T01:03:42.254Z,99674.31
2017-12-26T01:06:14.746Z,99674.42
2017-12-26T01:08:47.226Z,99684.47
2017-12-26T01:11:19.718Z,99673.36
2017-12-26T01:13:52.249Z,99674.34
2017-12-26T01:16:24.748Z,99669.17
2017-12-26T01:18:57.239Z,99666.84
2017-12-26T01:21:29.731Z,99672.34
2017-12-26T01:24:02.224Z,99659.91
2017-12-26T01:26:34.730Z,99663.61
2017-12-26T01:29:07.208Z,99646.05
2017-12-26T01:31:39.725Z,99650.65
2017-12-26T01:34:12.212Z,99650.14
2017-12-26T01:36:44.717Z,99643.44
2017-12-26T01:39:17.195Z,99640.98
2017-12-26T01:41:49.722Z,99644.89
2017-12-26T01:44:22.199Z,99641.14
2017-12-26T01:46:54.702Z,99629.45
2017-12-26T01:49:27.182Z,99623.68
2017-12-26T01:51:59.680Z,99611.99
2017-12-26T01:54:32.365Z,99618.01
2017-12-26T01:57:04.862Z,99609.81
2017-12-26T01:59:37.346Z,99606.08
2017-12-26T02:02:09.869Z,99608.09
2017-12-26T02:04:42.368Z,99605.11
2017-12-26T02:07:14.890Z,99611.55
2017-12-26T02:09:47.386Z,99604.15
2017-12-26T02:12:19.900Z,99595.48
2017-12-26T02:14:52.380Z,99592.17
2017-12-26T02:17:24.896Z,99587.47
2017-12-26T02:19:57.422Z,99590.80
2017-12-26T02:22:30.617Z,99572.16
2017-12-26T02:25:03.104Z,99576.25
2017-12-26T02:27:35.665Z,99562.25
2017-12-26T02:30:08.161Z,99558.41
2017-12-26T02:32:40.673Z,99540.89
2017-12-26T02:35:13.157Z,99538.87
2017-12-26T02:37:45.698Z,99520.69
2017-12-26T02:40:18.196Z,99518.19
2017-12-26T02:42:50.701Z,99510.77
2017-12-26T02:45:23.207Z,99509.31
2017-12-26T02:47:55.718Z,99504.03
2017-12-26T02:50:28.211Z,99493.31
2017-12-26T02:53:00.730Z,99487.03
2017-12-26T02:55:33.213Z,99483.42
2017-12-26T02:58:05.711Z,99478.95
2017-12-26T03:00:38.183Z,99482.56
2017-12-26T03:03:10.684Z,99475.60
2017-12-26T03:05:43.173Z,99471.03
2017-12-26T03:08:15.683Z,99463.02
2017-12-26T03:10:48.172Z,99463.53
2017-12-26T03:13:20.668Z,99459.13
2017-12-26T03:15:53.164Z,99443.88
2017-12-26T03:18:25.672Z,99443.52
2017-12-26T03:20:58.176Z,99439.10
2017-12-26T03:23:30.680Z,99436.05
2017-12-26T03:26:03.169Z,99438.91
2017-12-26T03:28:35.684Z,99434.55
2017-12-26T03:31:08.178Z,99432.22
2017-12-26T03:33:40.692Z,99434.55
2017-12-26T03:36:13.360Z,99421.22
2017-12-26T03:38:45.868Z,99413.13
2017-12-26T03:41:18.354Z,99412.17
2017-12-26T03:43:50.864Z,99401.90
2017-12-26T03:46:23.352Z,99395.47
2017-12-26T03:48:55.879Z,99393.09
2017-12-26T03:51:28.372Z,99384.42
2017-12-26T03:54:00.896Z,99377.02
2017-12-26T03:56:33.396Z,99363.63
2017-12-26T03:59:05.912Z,99374.28
2017-12-26T04:01:38.408Z,99365.67
2017-12-26T04:04:10.926Z,99356.75
2017-12-26T04:06:43.422Z,99362.55
2017-12-26T04:09:15.933Z,99356.02
2017-12-26T04:11:48.419Z,99347.20
2017-12-26T04:14:20.935Z,99340.89
2017-12-26T04:16:53.436Z,99335.70
2017-12-26T04:19:25.943Z,99336.02
2017-12-26T04:21:58.439Z,99315.25
2017-12-26T04:24:30.954Z,99316.02
2017-12-26T04:27:03.454Z,99323.42
2017-12-26T04:29:35.981Z,99319.26
2017-12-26T04:32:08.527Z,99310.62
2017-12-26T04:34:41.032Z,99305.61
2017-12-26T04:37:13.541Z,99297.58
2017-12-26T04:39:46.055Z,99299.72
2017-12-26T04:42:18.575Z,99294.37
2017-12-26T04:44:51.072Z,99281.83
2017-12-26T04:47:23.595Z,99281.38
2017-12-26T04:49:56.081Z,99279.39
2017-12-26T04:52:28.591Z,99266.08
2017-12-26T04:55:01.622Z,99267.14
2017-12-26T04:57:34.209Z,99262.89
2017-12-26T05:00:06.710Z,99255.20
2017-12-26T05:02:39.207Z,99246.63
2017-12-26T05:05:11.699Z,99245.84
2017-12-26T05:07:44.211Z,99230.03
2017-12-26T05:10:16.770Z,99235.61
2017-12-26T05:12:49.289Z,99225.35
2017-12-26T05:15:21.781Z,99224.46
2017-12-26T05:17:54.348Z,99224.27
2017-12-26T05:20:26.835Z,99211.70
2017-12-26T05:22:59.357Z,99205.52
2017-12-26T05:25:31.999Z,99203.52
2017-12-26T05:28:04.508Z,99195.77
2017-12-26T05:30:37.024Z,99199.83
2017-12-26T05:33:09.537Z,99186.92
2017-12-26T05:35:42.024Z,99182.62
2017-12-26T05:38:14.529Z,99178.70
2017-12-26T05:40:47.024Z,99163.34
2017-12-26T05:43:19.534Z,99158.06
2017-12-26T05:45:52.024Z,99147.06
2017-12-26T05:48:24.525Z,99135.66
2017-12-26T05:50:57.034Z,99129.78
2017-12-26T05:53:31.184Z,99119.03
2017-12-26T05:56:03.672Z,99118.34
2017-12-26T05:58:36.197Z,99113.58
2017-12-26T06:01:08.682Z,99115.89
2017-12-26T06:03:41.188Z,99103.31
2017-12-26T06:06:13.694Z,99090.74
2017-12-26T06:08:46.198Z,99085.63
2017-12-26T06:11:18.688Z,99084.23
2017-12-26T06:13:51.208Z,99082.36
2017-12-26T06:16:23.696Z,99087.88
2017-12-26T06:18:56.201Z,99085.23
2017-12-26T06:21:28.693Z,99079.96
2017-12-26T06:24:02.039Z,99071.24
2017-12-26T06:26:34.533Z,99070.73
2017-12-26T06:29:07.051Z,99061.31
2017-12-26T06:31:39.565Z,99053.39
2017-12-26T06:34:12.077Z,99058.27
2017-12-26T06:36:44.563Z,99064.17
2017-12-26T06:39:17.073Z,99055.28
2017-12-26T06:41:49.556Z,99049.48
2017-12-26T06:44:22.067Z,99042.37
2017-12-26T06:46:54.554Z,99036.53
2017-12-26T06:49:27.083Z,99026.88
2017-12-26T06:52:01.215Z,99017.64
2017-12-26T06:54:33.735Z,99015.16
2017-12-26T06:57:06.232Z,99010.06
2017-12-26T06:59:38.736Z,98998.93
2017-12-26T07:02:11.237Z,98980.83
2017-12-26T07:04:43.739Z,98983.92
2017-12-26T07:07:16.234Z,98985.20
2017-12-26T07:09:48.736Z,98979.09
2017-12-26T07:12:21.230Z,98975.20
2017-12-26T07:14:53.756Z,98970.39
2017-12-26T07:17:26.249Z,98971.02
2017-12-26T07:19:58.785Z,98951.68
2017-12-26T07:22:32.077Z,98958.77
2017-12-26T07:25:04.587Z,98966.38
2017-12-26T07:27:37.081Z,98971.25
2017-12-26T07:30:09.589Z,98945.56
2017-12-26T07:32:42.087Z,98952.43
2017-12-26T07:35:14.590Z,98941.52
2017-12-26T07:37:47.081Z,98950.24
2017-12-26T07:40:19.600Z,98936.29
2017-12-26T07:42:52.096Z,98939.60
2017-12-26T07:45:24.616Z,98929.55
2017-12-26T07:47:57.124Z,98920.80
2017-12-26T07:50:29.876Z,98938.56
2017-12-26T07:53:02.849Z,98933.39
2017-12-26T07:55:35.453Z,98919.55
2017-12-26T07:58:07.937Z,98919.66
2017-12-26T08:00:40.443Z,98926.22
2017-12-26T08:03:12.966Z,98926.98
2017-12-26T08:05:45.457Z,98932.47
2017-12-26T08:08:17.990Z,98925.26
2017-12-26T08:10:50.471Z,98929.98
2017-12-26T08:13:22.977Z,98924.70
2017-12-26T08:15:55.458Z,98918.98
2017-12-26T08:18:27.963Z,98928.30
2017-12-26T08:21:00.945Z,98920.80
2017-12-26T08:23:33.461Z,98908.74
2017-12-26T08:26:05.939Z,98916.94
2017-12-26T08:28:38.484Z,98922.92
2017-12-26T08:31:11.019Z,98924.84
2017-12-26T08:33:43.621Z,98917.63
2017-12-26T08:36:16.120Z,98915.38
2017-12-26T08:38:48.625Z,98923.27
2017-12-26T08:41:21.117Z,98911.59
2017-12-26T08:43:53.619Z,98909.63
2017-12-26T08:46:26.108Z,98920.52
2017-12-26T08:48:58.619Z,98910.23
2017-12-26T08:51:41.671Z,98919.85
2017-12-26T08:54:14.277Z,98919.36
2017-12-26T08:56:46.907Z,98922.80
2017-12-26T08:59:19.493Z,98927.18
2017-12-26T09:01:52.004Z,98926.05
2017-12-26T09:04:24.508Z,98925.31
2017-12-26T09:06:56.984Z,98933.16
2017-12-26T09:09:30.296Z,98934.89
2017-12-26T09:12:02.797Z,98934.33
2017-12-26T09:14:35.312Z,98940.83
2017-12-26T09:17:07.792Z,98937.14
2017-12-26T09:19:41.124Z,98934.57
2017-12-26T09:22:13.616Z,98936.89
2017-12-26T09:24:46.126Z,98940.75
2017-12-26T09:27:18.640Z,98931.41
2017-12-26T09:29:51.146Z,98940.52
2017-12-26T09:32:23.634Z,98948.55
2017-12-26T09:34:56.161Z,98948.42
2017-12-26T09:37:28.659Z,98948.05
2017-12-26T09:40:01.615Z,98946.77
2017-12-26T09:42:34.101Z,98951.89
2017-12-26T09:45:06.621Z,98942.21
2017-12-26T09:47:39.174Z,98950.84
2017-12-26T09:50:11.686Z,98947.48
2017-12-26T09:52:44.171Z,98950.68
2017-12-26T09:55:16.707Z,98954.14
2017-12-26T09:57:49.210Z,98959.19
2017-12-26T10:00:21.724Z,98964.08
2017-12-26T10:02:54.232Z,98970.38
2017-12-26T10:05:26.734Z,98972.14
2017-12-26T10:07:59.217Z,98963.83
2017-12-26T10:10:32.560Z,98965.43
2017-12-26T10:13:05.036Z,98958.38
2017-12-26T10:15:37.537Z,98960.58
2017-12-26T10:18:10.021Z,98952.41
2017-12-26T10:20:42.527Z,98948.25
2017-12-26T10:23:15.021Z,98948.99
2017-12-26T10:25:47.538Z,98947.30
2017-12-26T10:28:20.025Z,98951.99
2017-12-26T10:30:52.554Z,98954.98
2017-12-26T10:33:25.053Z,98954.41
2017-12-26T10:35:57.584Z,98947.89
2017-12-26T10:38:30.661Z,98953.19
2017-12-26T10:41:03.240Z,98963.42
2017-12-26T10:43:35.718Z,98948.22
2017-12-26T10:46:08.227Z,98959.54
2017-12-26T10:48:40.709Z,98947.72
2017-12-26T10:51:13.298Z,98952.66
2017-12-26T10:53:45.796Z,98938.28
2017-12-26T10:56:18.308Z,98947.51
2017-12-26T10:58:50.798Z,98945.80
2017-12-26T11:01:23.302Z,98952.07
2017-12-26T11:03:55.788Z,98943.83
2017-12-26T11:06:28.302Z,98946.41
2017-12-26T11:09:01.152Z,98943.75
2017-12-26T11:11:33.660Z,98952.34
2017-12-26T11:14:06.224Z,98939.50
2017-12-26T11:16:38.748Z,98930.28
2017-12-26T11:19:11.254Z,98939.28
2017-12-26T11:21:43.728Z,98940.14
2017-12-26T11:24:16.228Z,98935.31
2017-12-26T11:26:57.591Z,98946.61
2017-12-26T11:29:30.711Z,98934.69
2017-12-26T11:32:03.244Z,98929.88
2017-12-26T11:34:35.774Z,98933.34
2017-12-26T11:37:08.258Z,98948.70
2017-12-26T11:39:40.760Z,98936.17
2017-12-26T11:42:13.274Z,98931.90
2017-12-26T11:44:45.788Z,98920.20
2017-12-26T11:47:18.287Z,98929.19
2017-12-26T11:49:50.806Z,98935.09
2017-12-26T11:52:23.304Z,98936.01
2017-12-26T11:54:55.825Z,98936.80
2017-12-26T11:57:28.317Z,98939.46
2017-12-26T12:00:01.304Z,98940.73
2017-12-26T12:02:33.796Z,98936.66
2017-12-26T12:05:06.310Z,98925.86
2017-12-26T12:07:38.792Z,98925.73
2017-12-26T12:10:11.321Z,98937.80
2017-12-26T12:12:43.805Z,98932.48
2017-12-26T12:15:16.340Z,98920.96
2017-12-26T12:17:48.837Z,98934.43
2017-12-26T12:20:21.360Z,98924.42
2017-12-26T12:22:53.858Z,98932.65
2017-12-26T12:25:26.374Z,98932.22
2017-12-26T12:27:58.874Z,98942.27
2017-12-26T12:30:32.208Z,98935.85
2017-12-26T12:33:04.704Z,98934.80
2017-12-26T12:35:37.297Z,98937.75
2017-12-26T12:38:09.788Z,98936.44
2017-12-26T12:40:42.303Z,98942.36
2017-12-26T12:43:14.796Z,98946.45
2017-12-26T12:45:47.319Z,98946.98
2017-12-26T12:48:19.808Z,98947.52
2017-12-26T12:50:52.321Z,98949.27
2017-12-26T12:53:24.796Z,98948.63
2017-12-26T12:55:57.308Z,98951.75
2017-12-26T12:58:30.053Z,98958.17
2017-12-26T13:01:02.587Z,98959.84
2017-12-26T13:03:35.077Z,98953.60
2017-12-26T13:06:07.584Z,98961.41
2017-12-26T13:08:40.056Z,98962.56
2017-12-26T13:11:12.637Z,98968.72
2017-12-26T13:13:45.127Z,98965.75
2017-12-26T13:16:17.633Z,98964.40
2017-12-26T13:18:50.139Z,98970.89
2017-12-26T13:21:22.659Z,98972.57
2017-12-26T13:23:55.144Z,98967.64
2017-12-26T13:26:27.662Z,98964.82
2017-12-26T13:29:00.146Z,98969.98
2017-12-26T13:31:32.656Z,98974.92
2017-12-26T13:34:05.132Z,98987.63
2017-12-26T13:36:39.015Z,98980.33
2017-12-26T13:39:11.488Z,98983.89
2017-12-26T13:41:43.979Z,98978.92
2017-12-26T13:44:16.485Z,98983.97
2017-12-26T13:46:48.979Z,98978.88
2017-12-26T13:49:21.486Z,98993.96
2017-12-26T13:51:53.989Z,98995.33
2017-12-26T13:54:26.464Z,98996.25
2017-12-26T13:56:58.965Z,98993.30
2017-12-26T13:59:32.058Z,98996.33
2017-12-26T14:02:04.554Z,98993.84
2017-12-26T14:04:37.040Z,99002.56
2017-12-26T14:07:09.532Z,98995.19
2017-12-26T14:09:42.005Z,99002.41
2017-12-26T14:12:14.500Z,99004.53
2017-12-26T14:14:46.976Z,99014.59
2017-12-26T14:17:19.481Z,99019.04
2017-12-26T14:19:51.965Z,99006.70
2017-12-26T14:22:24.470Z,99006.24
2017-12-26T14:24:56.952Z,99010.06
2017-12-26T14:27:29.448Z,99007.23
2017-12-26T14:30:02.673Z,99013.00
2017-12-26T14:32:36.002Z,99007.89
2017-12-26T14:35:08.525Z,99010.48
2017-12-26T14:37:41.014Z,99004.89
2017-12-26T14:40:13.554Z,99017.03
2017-12-26T14:42:46.029Z,99015.77
2017-12-26T14:45:18.532Z,99011.86
2017-12-26T14:47:51.006Z,99016.17
2017-12-26T14:50:23.513Z,99015.58
2017-12-26T14:52:55.989Z,99018.27
2017-12-26T14:55:28.481Z,99016.13
2017-12-26T14:58:00.967Z,99016.91
2017-12-26T15:00:33.467Z,99019.10
2017-12-26T15:03:05.943Z,99013.89
2017-12-26T15:05:38.440Z,99028.74
2017-12-26T15:08:11.884Z,99024.10
2017-12-26T15:10:44.379Z,99024.23
2017-12-26T15:13:16.851Z,99034.11
2017-12-26T15:15:49.348Z,99030.14
2017-12-26T15:18:21.818Z,99038.16
2017-12-26T15:20:54.364Z,99037.89
2017-12-26T15:23:26.843Z,99041.22
2017-12-26T15:25:59.368Z,99041.00
2017-12-26T15:28:31.860Z,99040.95
2017-12-26T15:31:04.355Z,99028.88
2017-12-26T15:33:36.832Z,99042.86
2017-12-26T15:36:09.344Z,99049.11
2017-12-26T15:38:41.819Z,99050.18
2017-12-26T15:41:14.313Z,99055.08
2017-12-26T15:43:46.791Z,99055.16
2017-12-26T15:46:19.313Z,99058.64
2017-12-26T15:48:51.792Z,99063.08
2017-12-26T15:51:24.296Z,99055.00
2017-12-26T15:53:56.819Z,99065.80
2017-12-26T15:56:29.322Z,99066.88
2017-12-26T15:59:01.799Z,99059.84
2017-12-26T16:01:34.312Z,99062.98
2017-12-26T16:04:06.787Z,99069.27
2017-12-26T16:06:39.287Z,99073.36
2017-12-26T16:09:11.766Z,99074.36
2017-12-26T16:11:44.272Z,99082.66
2017-12-26T16:14:16.755Z,99074.20
2017-12-26T16:16:49.262Z,99078.02
2017-12-26T16:19:21.749Z,99079.16
2017-12-26T16:21:54.244Z,99079.30
2017-12-26T16:24:26.718Z,99077.92
2017-12-26T16:26:59.218Z,99078.73
2017-12-26T16:29:31.682Z,99080.94
2017-12-26T16:32:04.179Z,99074.49
2017-12-26T16:34:36.665Z,99080.99
2017-12-26T16:37:09.268Z,99085.19
2017-12-26T16:39:41.752Z,99085.22
2017-12-26T16:42:14.253Z,99087.34
2017-12-26T16:44:46.748Z,99085.32
2017-12-26T16:47:19.250Z,99082.26
2017-12-26T16:49:52.835Z,99086.63
2017-12-26T16:52:25.328Z,99092.81
2017-12-26T16:54:57.825Z,99098.28
2017-12-26T16:57:30.329Z,99093.02
2017-12-26T17:00:02.812Z,99092.88
2017-12-26T17:02:35.350Z,99097.04
2017-12-26T17:05:07.821Z,99087.42
2017-12-26T17:07:40.321Z,99086.16
2017-12-26T17:10:12.795Z,99098.49
2017-12-26T17:12:45.284Z,99099.39
2017-12-26T17:15:17.760Z,99099.62
2017-12-26T17:17:50.263Z,99115.74
2017-12-26T17:20:22.740Z,99107.50
2017-12-26T17:22:55.234Z,99104.37
2017-12-26T17:25:27.711Z,99107.42
2017-12-26T17:28:00.243Z,99099.92
2017-12-26T17:30:32.730Z,99098.80
2017-12-26T17:33:05.228Z,99099.97
2017-12-26T17:35:37.699Z,99106.67
2017-12-26T17:38:10.637Z,99105.00
2017-12-26T17:40:43.108Z,99101.73
2017-12-26T17:43:15.638Z,99094.63
2017-12-26T17:45:48.116Z,99099.99
2017-12-26T17:48:20.615Z,99110.81
2017-12-26T17:50:53.103Z,99103.85
2017-12-26T17:53:25.606Z,99103.57
2017-12-26T17:55:58.101Z,99104.77
2017-12-26T17:58:30.577Z,99104.61
2017-12-26T18:01:03.101Z,99107.80
2017-12-26T18:03:35.592Z,99110.25
2017-12-26T18:06:08.097Z,99101.52
2017-12-26T18:08:41.239Z,99105.33
2017-12-26T18:11:13.736Z,99101.58
2017-12-26T18:13:46.230Z,99096.80
2017-12-26T18:16:18.880Z,99088.67
2017-12-26T18:18:51.362Z,99086.69
2017-12-26T18:21:24.568Z,99086.58
2017-12-26T18:23:57.056Z,99090.77
2017-12-26T18:26:29.557Z,99089.30
2017-12-26T18:29:02.026Z,99094.34
2017-12-26T18:31:34.525Z,99091.36
2017-12-26T18:34:07.031Z,99099.00
2017-12-26T18:36:40.182Z,99107.33
2017-12-26T18:39:12.671Z,99103.95
2017-12-26T18:41:45.165Z,99099.55
2017-12-26T18:44:17.637Z,99107.67
2017-12-26T18:46:50.163Z,99105.88
2017-12-26T18:49:22.641Z,99115.18
2017-12-26T18:51:55.154Z,99105.42
2017-12-26T18:54:27.629Z,99111.78
2017-12-26T18:57:00.128Z,99109.35
2017-12-26T18:59:32.609Z,99111.05
2017-12-26T19:02:05.104Z,99110.20
2017-12-26T19:04:37.588Z,99107.76
2017-12-26T19:07:10.595Z,99107.23
2017-12-26T19:09:43.081Z,99102.82
2017-12-26T19:12:15.570Z,99106.11
2017-12-26T19:14:48.044Z,99098.27
2017-12-26T19:17:20.569Z,99093.81
2017-12-26T19:19:53.048Z,99083.77
2017-12-26T19:22:25.551Z,99094.44
2017-12-26T19:24:58.017Z,99079.72
2017-12-26T19:27:30.517Z,99079.09
2017-12-26T19:30:02.992Z,99085.73
2017-12-26T19:32:35.514Z,99075.55
2017-12-26T19:35:08.000Z,99077.53
2017-12-26T19:37:40.500Z,99068.30
2017-12-26T19:40:12.967Z,99074.96
2017-12-26T19:42:45.451Z,99064.41
2017-12-26T19:45:17.923Z,99067.08
2017-12-26T19:47:50.419Z,99067.17
2017-12-26T19:50:22.890Z,99061.98
2017-12-26T19:52:55.396Z,99054.00
2017-12-26T19:55:27.880Z,99057.67
2017-12-26T19:58:00.415Z,99052.12
2017-12-26T20:00:32.890Z,99048.79
2017-12-26T20:03:07.474Z,99052.48
2017-12-26T20:05:40.258Z,99054.01
2017-12-26T20:08:12.757Z,99042.59
2017-12-26T20:10:45.248Z,99040.44
2017-12-26T20:13:17.750Z,99037.25
2017-12-26T20:15:50.227Z,99042.82
2017-12-26T20:18:22.719Z,99043.18
2017-12-26T20:20:55.208Z,99039.42
2017-12-26T20:23:27.708Z,99033.68
2017-12-26T20:26:02.192Z,99041.85
2017-12-26T20:28:40.226Z,99039.48
2017-12-26T20:31:12.711Z,99042.44
2017-12-26T20:33:45.228Z,99043.83
2017-12-26T20:36:17.718Z,99041.23
2017-12-26T20:38:50.227Z,99039.97
2017-12-26T20:41:22.717Z,99034.33
2017-12-26T20:43:55.205Z,99034.52
2017-12-26T20:46:27.684Z,99027.39
2017-12-26T20:49:00.193Z,99028.34
2017-12-26T20:51:32.663Z,99039.74
2017-12-26T20:54:05.162Z,99033.02
2017-12-26T20:56:37.652Z,99028.83
2017-12-26T20:59:10.698Z,99020.92
2017-12-26T21:01:43.178Z,99012.89
2017-12-26T21:04:15.680Z,99016.94
2017-12-26T21:06:48.156Z,99016.91
2017-12-26T21:09:20.658Z,99012.45
2017-12-26T21:11:53.136Z,99007.66
2017-12-26T21:14:25.635Z,99007.34
2017-12-26T21:16:58.128Z,99005.77
2017-12-26T21:19:30.634Z,99005.35
2017-12-26T21:22:03.116Z,98999.73
2017-12-26T21:24:35.608Z,98998.08
2017-12-26T21:27:08.084Z,98994.27
2017-12-26T21:29:40.595Z,98994.11
2017-12-26T21:32:13.098Z,98994.86
2017-12-26T21:34:45.598Z,98983.80
2017-12-26T21:37:18.124Z,98983.80
2017-12-26T21:39:50.623Z,98992.02
2017-12-26T21:42:23.122Z,98997.52
2017-12-26T21:44:55.597Z,99002.55
2017-12-26T21:47:28.082Z,98990.61
2017-12-26T21:50:00.566Z,98991.05
2017-12-26T21:52:33.071Z,98990.83
2017-12-26T21:55:05.545Z,98984.73
2017-12-26T21:57:38.056Z,98989.15
2017-12-26T22:00:10.536Z,98983.99
2017-12-26T22:02:43.039Z,98982.14
2017-12-26T22:05:15.517Z,98980.77
2017-12-26T22:07:48.014Z,98983.27
2017-12-26T22:10:20.500Z,98975.16
2017-12-26T22:12:52.987Z,98970.70
2017-12-26T22:15:25.467Z,98970.70
2017-12-26T22:17:57.981Z,98969.49
2017-12-26T22:20:30.475Z,98969.28
2017-12-26T22:23:02.981Z,98956.88
2017-12-26T22:25:35.462Z,98965.06
2017-12-26T22:28:07.950Z,98953.00
2017-12-26T22:30:40.426Z,98959.34
2017-12-26T22:33:12.925Z,98955.31
2017-12-26T22:35:45.397Z,98955.13
2017-12-26T22:38:17.900Z,98951.98
2017-12-26T22:40:50.380Z,98943.97
2017-12-26T22:43:22.881Z,98938.59
2017-12-26T22:45:55.354Z,98943.83
2017-12-26T22:48:27.847Z,98948.97
2017-12-26T22:51:00.367Z,98943.57
2017-12-26T22:53:32.855Z,98945.45
2017-12-26T22:56:05.363Z,98939.47
2017-12-26T22:58:37.859Z,98933.55
2017-12-26T23:01:10.799Z,98943.69
2017-12-26T23:03:43.318Z,98938.73
2017-12-26T23:06:15.796Z,98933.90
2017-12-26T23:08:48.295Z,98929.88
2017-12-26T23:11:20.784Z,98928.61
2017-12-26T23:17:07.489Z,98923.75
2017-12-26T23:19:45.638Z,98914.67
2017-12-26T23:22:18.112Z,98909.67
2017-12-26T23:24:56.138Z,98909.62
2017-12-26T23:27:34.264Z,98901.73
2017-12-26T23:30:12.378Z,98900.38
2017-12-26T23:32:50.613Z,98898.72
2017-12-26T23:35:28.688Z,98897.42
2017-12-26T23:38:06.775Z,98896.08
2017-12-26T23:40:44.921Z,98896.78
2017-12-26T23:43:23.114Z,98896.67
2017-12-26T23:49:08.912Z,98870.64
2017-12-26T23:51:48.423Z,98874.18
2017-12-26T23:54:26.397Z,98865.73
2017-12-26T23:57:04.407Z,98862.11
2017-12-26T23:59:42.459Z,98856.82
